createdAt,value
2023-02-17T00:00:39.262Z,93.30
2023-02-17T00:03:40.980Z,93.80
2023-02-17T00:06:42.540Z,93.30
2023-02-17T00:09:44.061Z,93.50
2023-02-17T00:12:46.131Z,93.90
2023-02-17T00:15:47.640Z,93.70
2023-02-17T00:18:52.601Z,93.40
2023-02-17T00:21:58.474Z,93.50
2023-02-17T00:24:59.959Z,93.50
2023-02-17T00:28:01.429Z,93.40
2023-02-17T00:31:07.297Z,93.40
2023-02-17T00:34:08.801Z,92.90
2023-02-17T00:37:10.284Z,93.50
2023-02-17T00:40:15.038Z,93.60
2023-02-17T00:43:16.505Z,92.80
2023-02-17T00:46:18.489Z,93.40
2023-02-17T00:49:21.909Z,93.50
2023-02-17T00:52:23.523Z,93.80
2023-02-17T00:55:26.014Z,93.50
2023-02-17T00:58:27.574Z,93.50
2023-02-17T01:01:32.235Z,93.60
2023-02-17T01:04:33.932Z,93.80
2023-02-17T01:07:37.149Z,93.80
2023-02-17T01:10:40.964Z,93.60
2023-02-17T01:13:42.436Z,93.70
2023-02-17T01:16:45.435Z,93.70
2023-02-17T01:19:46.910Z,94.20
2023-02-17T01:22:48.383Z,94.00
2023-02-17T01:25:50.622Z,93.80
2023-02-17T01:28:52.621Z,93.90
2023-02-17T01:31:54.087Z,93.80
2023-02-17T01:34:55.602Z,93.90
2023-02-17T01:37:57.086Z,93.80
2023-02-17T01:40:58.740Z,93.90
2023-02-17T01:44:06.353Z,93.90
2023-02-17T01:47:12.551Z,93.30
2023-02-17T01:50:14.541Z,94.10
2023-02-17T01:53:18.490Z,94.10
2023-02-17T01:56:20.645Z,94.00
2023-02-17T01:59:22.316Z,93.90
2023-02-17T02:02:24.017Z,94.10
2023-02-17T02:05:25.584Z,94.00
2023-02-17T02:08:29.831Z,94.00
2023-02-17T02:11:31.510Z,94.10
2023-02-17T02:14:32.993Z,94.10
2023-02-17T02:17:53.349Z,94.10
2023-02-17T02:21:00.828Z,93.40
2023-02-17T02:24:21.400Z,93.30
2023-02-17T02:27:45.714Z,93.40
2023-02-17T02:31:01.781Z,93.50
2023-02-17T02:34:05.565Z,93.40
2023-02-17T02:37:27.277Z,94.10
2023-02-17T02:40:30.944Z,94.00
2023-02-17T02:43:32.467Z,94.10
2023-02-17T02:46:33.957Z,94.00
2023-02-17T02:49:36.497Z,93.90
2023-02-17T02:52:41.022Z,94.20
2023-02-17T02:55:52.253Z,93.30
2023-02-17T02:59:09.023Z,93.40
2023-02-17T03:02:18.105Z,93.20
2023-02-17T03:05:30.075Z,93.30
2023-02-17T03:08:43.742Z,93.30
2023-02-17T03:11:46.079Z,93.30
2023-02-17T03:14:52.786Z,94.30
2023-02-17T03:17:56.753Z,93.40
2023-02-17T03:21:02.125Z,94.20
2023-02-17T03:24:04.033Z,94.00
2023-02-17T03:27:05.540Z,94.30
2023-02-17T03:30:07.722Z,94.10
2023-02-17T03:33:09.267Z,93.90
2023-02-17T03:36:10.761Z,94.10
2023-02-17T03:39:12.305Z,94.00
2023-02-17T03:42:13.752Z,94.10
2023-02-17T03:45:15.242Z,94.20
2023-02-17T03:48:16.692Z,94.10
2023-02-17T03:51:22.186Z,94.10
2023-02-17T03:54:23.672Z,93.50
2023-02-17T03:57:25.196Z,94.20
2023-02-17T04:00:26.701Z,94.20
2023-02-17T04:03:28.200Z,94.30
2023-02-17T04:06:29.674Z,94.20
2023-02-17T04:09:31.184Z,94.10
2023-02-17T04:12:32.649Z,94.10
2023-02-17T04:15:34.165Z,94.10
2023-02-17T04:18:36.162Z,94.10
2023-02-17T04:21:37.804Z,94.30
2023-02-17T04:24:39.413Z,94.10
2023-02-17T04:27:40.890Z,94.30
2023-02-17T04:30:43.565Z,94.20
2023-02-17T04:33:45.257Z,94.30
2023-02-17T04:36:46.757Z,94.30
2023-02-17T04:39:48.229Z,94.30
2023-02-17T04:42:49.711Z,94.30
2023-02-17T04:45:51.287Z,94.30
2023-02-17T04:48:52.776Z,94.40
2023-02-17T04:51:54.289Z,94.30
2023-02-17T04:54:55.749Z,94.20
2023-02-17T04:57:57.341Z,94.40
2023-02-17T05:00:59.573Z,94.30
2023-02-17T05:04:01.129Z,94.30
2023-02-17T05:07:02.931Z,94.20
2023-02-17T05:10:04.505Z,94.20
2023-02-17T05:13:06.023Z,94.30
2023-02-17T05:16:07.832Z,94.40
2023-02-17T05:19:09.514Z,94.40
2023-02-17T05:22:10.969Z,94.30
2023-02-17T05:25:12.478Z,95.00
2023-02-17T05:28:13.961Z,94.40
2023-02-17T05:31:15.528Z,94.60
2023-02-17T05:34:17.046Z,94.60
2023-02-17T05:37:18.706Z,94.60
2023-02-17T05:40:20.261Z,94.50
2023-02-17T05:43:21.718Z,94.40
2023-02-17T05:46:23.284Z,94.60
2023-02-17T05:49:24.980Z,94.50
2023-02-17T05:52:26.491Z,94.20
2023-02-17T05:55:28.003Z,94.60
2023-02-17T05:58:30.021Z,94.60
2023-02-17T06:01:31.547Z,94.60
2023-02-17T06:04:33.069Z,94.70
2023-02-17T06:07:34.561Z,94.50
2023-02-17T06:10:36.149Z,95.30
2023-02-17T06:13:37.650Z,94.40
2023-02-17T06:16:39.144Z,94.40
2023-02-17T06:19:40.628Z,94.80
2023-02-17T06:22:42.294Z,94.60
2023-02-17T06:25:43.823Z,94.70
2023-02-17T06:28:45.317Z,94.70
2023-02-17T06:31:46.888Z,94.60
2023-02-17T06:34:48.573Z,94.70
2023-02-17T06:37:50.159Z,94.70
2023-02-17T06:40:51.719Z,94.60
2023-02-17T06:43:53.202Z,94.60
2023-02-17T06:46:54.673Z,94.90
2023-02-17T06:49:56.128Z,95.00
2023-02-17T06:52:57.589Z,94.80
2023-02-17T06:55:59.064Z,95.30
2023-02-17T06:59:01.186Z,95.70
2023-02-17T07:02:02.951Z,94.90
2023-02-17T07:05:04.655Z,95.00
2023-02-17T07:08:06.610Z,95.20
2023-02-17T07:11:08.836Z,95.20
2023-02-17T07:14:10.385Z,95.30
2023-02-17T07:17:11.866Z,95.50
2023-02-17T07:20:13.562Z,95.90
2023-02-17T07:23:15.223Z,95.30
2023-02-17T07:26:16.672Z,94.90
2023-02-17T07:29:18.180Z,95.40
2023-02-17T07:32:19.651Z,95.20
2023-02-17T07:35:21.193Z,95.20
2023-02-17T07:38:22.662Z,95.20
2023-02-17T07:41:25.133Z,95.30
2023-02-17T07:44:27.678Z,95.20
2023-02-17T07:47:29.231Z,95.30
2023-02-17T07:50:30.741Z,95.10
2023-02-17T07:53:32.372Z,95.10
2023-02-17T07:56:33.902Z,95.70
2023-02-17T07:59:35.387Z,95.40
2023-02-17T08:02:36.871Z,95.30
2023-02-17T08:05:39.519Z,95.20
2023-02-17T08:08:59.945Z,95.30
2023-02-17T08:12:20.082Z,95.00
2023-02-17T08:15:21.756Z,94.60
2023-02-17T08:18:23.277Z,95.40
2023-02-17T08:21:26.059Z,95.40
2023-02-17T08:24:27.591Z,95.60
2023-02-17T08:27:29.087Z,96.10
2023-02-17T08:30:30.717Z,95.60
2023-02-17T08:33:32.302Z,95.70
2023-02-17T08:36:34.150Z,95.30
2023-02-17T08:39:35.966Z,95.50
2023-02-17T08:42:39.022Z,96.00
2023-02-17T08:45:40.596Z,95.70
2023-02-17T08:48:42.476Z,95.40
2023-02-17T08:51:44.045Z,95.30
2023-02-17T08:54:45.682Z,95.30
2023-02-17T08:57:47.213Z,95.10
2023-02-17T09:00:48.732Z,95.20
2023-02-17T09:03:50.955Z,95.10
2023-02-17T09:06:53.472Z,95.40
2023-02-17T09:09:55.005Z,95.50
2023-02-17T09:12:56.506Z,95.10
2023-02-17T09:15:58.320Z,95.20
2023-02-17T09:18:59.949Z,95.20
2023-02-17T09:22:01.534Z,95.50
2023-02-17T09:25:03.677Z,95.30
2023-02-17T09:28:05.687Z,95.10
2023-02-17T09:31:11.382Z,95.20
2023-02-17T09:34:14.027Z,94.50
2023-02-17T09:37:17.660Z,95.90
2023-02-17T09:40:24.686Z,95.00
2023-02-17T09:43:28.402Z,94.40
2023-02-17T09:46:35.792Z,95.10
2023-02-17T09:49:43.294Z,94.30
2023-02-17T09:53:01.108Z,94.30
2023-02-17T09:56:04.980Z,94.40
2023-02-17T09:59:42.328Z,95.00
2023-02-17T10:02:55.980Z,94.40
2023-02-17T10:06:05.445Z,94.40
2023-02-17T10:09:16.567Z,94.40
2023-02-17T10:12:30.308Z,94.40
2023-02-17T10:15:34.953Z,95.40
2023-02-17T10:18:41.580Z,95.10
2023-02-17T10:21:45.978Z,94.10
2023-02-17T10:24:47.525Z,94.90
2023-02-17T10:28:10.431Z,95.10
2023-02-17T10:31:19.383Z,94.40
2023-02-17T10:34:26.442Z,94.40
2023-02-17T10:37:32.966Z,95.00
2023-02-17T10:40:34.443Z,95.00
2023-02-17T10:43:35.981Z,95.80
2023-02-17T10:46:40.361Z,95.10
2023-02-17T10:49:45.655Z,95.20
2023-02-17T10:52:47.494Z,95.10
2023-02-17T10:55:58.398Z,95.00
2023-02-17T10:59:06.444Z,94.00
2023-02-17T11:02:22.870Z,94.70
2023-02-17T11:05:29.486Z,94.10
2023-02-17T11:08:39.296Z,94.10
2023-02-17T11:11:48.077Z,94.10
2023-02-17T11:14:51.820Z,94.90
2023-02-17T11:17:53.789Z,95.30
2023-02-17T11:21:03.643Z,95.00
2023-02-17T11:24:05.740Z,94.30
2023-02-17T11:27:11.447Z,94.80
2023-02-17T11:30:18.690Z,94.10
2023-02-17T11:33:39.691Z,94.30
2023-02-17T11:36:43.642Z,93.80
2023-02-17T11:39:47.000Z,94.70
2023-02-17T11:42:55.334Z,94.60
2023-02-17T11:46:09.021Z,94.60
2023-02-17T11:49:29.454Z,93.70
2023-02-17T11:52:30.941Z,93.80
2023-02-17T11:55:40.264Z,94.40
2023-02-17T11:58:56.798Z,93.70
2023-02-17T12:01:58.409Z,93.70
2023-02-17T12:05:04.910Z,94.80
2023-02-17T12:08:27.289Z,94.70
2023-02-17T12:11:37.458Z,94.60
2023-02-17T12:15:01.550Z,94.00
2023-02-17T12:18:05.871Z,94.00
2023-02-17T12:21:19.519Z,93.70
2023-02-17T12:24:39.803Z,93.70
2023-02-17T12:27:51.049Z,93.60
2023-02-17T12:31:03.576Z,93.60
2023-02-17T12:34:05.168Z,93.50
2023-02-17T12:37:11.156Z,94.70
2023-02-17T12:40:21.498Z,94.40
2023-02-17T12:43:22.986Z,94.00
2023-02-17T12:46:28.594Z,94.90
2023-02-17T12:49:34.255Z,95.10
2023-02-17T12:52:40.808Z,94.60
2023-02-17T12:55:52.857Z,93.90
2023-02-17T12:58:56.356Z,93.90
2023-02-17T13:02:00.651Z,95.00
2023-02-17T13:05:04.658Z,94.60
2023-02-17T13:08:09.465Z,94.60
2023-02-17T13:11:12.981Z,94.60
2023-02-17T13:14:26.131Z,95.10
2023-02-17T13:17:34.639Z,93.80
2023-02-17T13:20:50.739Z,94.30
2023-02-17T13:24:08.835Z,93.80
2023-02-17T13:27:33.733Z,94.00
2023-02-17T13:30:39.694Z,93.80
2023-02-17T13:33:49.074Z,93.90
2023-02-17T13:36:50.844Z,93.90
2023-02-17T13:39:52.470Z,95.00
2023-02-17T13:42:54.699Z,94.70
2023-02-17T13:46:03.925Z,94.60
2023-02-17T13:49:06.119Z,93.90
2023-02-17T13:52:09.228Z,94.40
2023-02-17T13:55:17.989Z,95.10
2023-02-17T13:58:25.795Z,94.60
2023-02-17T14:01:28.624Z,94.00
2023-02-17T14:04:31.168Z,94.70
2023-02-17T14:07:34.198Z,94.70
2023-02-17T14:10:35.975Z,94.80
2023-02-17T14:13:38.583Z,94.60
2023-02-17T14:16:41.583Z,94.70
2023-02-17T14:19:47.103Z,94.90
2023-02-17T14:23:03.881Z,95.00
2023-02-17T14:26:10.166Z,94.90
2023-02-17T14:29:15.490Z,94.10
2023-02-17T14:32:27.370Z,94.70
2023-02-17T14:35:28.860Z,94.10
2023-02-17T14:38:32.380Z,94.80
2023-02-17T14:41:34.019Z,94.80
2023-02-17T14:44:35.514Z,94.80
2023-02-17T14:47:36.991Z,95.40
2023-02-17T14:50:47.834Z,94.90
2023-02-17T14:53:49.761Z,94.90
2023-02-17T14:57:06.132Z,95.60
2023-02-17T15:00:12.015Z,94.40
2023-02-17T15:03:13.493Z,94.50
2023-02-17T15:06:16.485Z,95.10
2023-02-17T15:09:23.481Z,95.50
2023-02-17T15:12:27.818Z,95.30
2023-02-17T15:15:29.710Z,95.40
2023-02-17T15:18:31.205Z,95.40
2023-02-17T15:21:34.333Z,95.40
2023-02-17T15:24:36.015Z,95.50
2023-02-17T15:27:37.478Z,95.50
2023-02-17T15:30:39.055Z,95.50
2023-02-17T15:33:41.169Z,95.60
2023-02-17T15:36:43.158Z,95.90
2023-02-17T15:39:44.615Z,95.50
2023-02-17T15:42:48.937Z,95.60
2023-02-17T15:45:50.447Z,95.50
2023-02-17T15:48:52.314Z,95.60
2023-02-17T15:51:53.788Z,95.80
2023-02-17T15:54:55.460Z,95.90
2023-02-17T15:57:59.148Z,95.80
2023-02-17T16:01:03.678Z,95.70
2023-02-17T16:04:06.193Z,95.80
2023-02-17T16:07:07.676Z,95.80
2023-02-17T16:10:10.233Z,95.60
2023-02-17T16:13:14.502Z,95.60
2023-02-17T16:16:20.333Z,96.40
2023-02-17T16:19:22.195Z,95.10
2023-02-17T16:22:23.985Z,95.70
2023-02-17T16:25:26.186Z,95.10
2023-02-17T16:28:28.265Z,95.60
2023-02-17T16:31:32.315Z,95.70
2023-02-17T16:34:34.584Z,95.50
2023-02-17T16:37:36.113Z,95.50
2023-02-17T16:40:40.041Z,95.50
2023-02-17T16:43:41.733Z,95.70
2023-02-17T16:46:50.602Z,95.50
2023-02-17T16:49:52.599Z,94.80
2023-02-17T16:52:55.019Z,95.50
2023-02-17T16:55:56.572Z,95.50
2023-02-17T16:58:58.020Z,95.60
2023-02-17T17:01:59.476Z,95.50
2023-02-17T17:05:00.937Z,95.80
2023-02-17T17:08:02.739Z,95.60
2023-02-17T17:11:04.279Z,95.50
2023-02-17T17:14:05.789Z,95.60
2023-02-17T17:17:09.692Z,95.60
2023-02-17T17:20:13.494Z,95.50
2023-02-17T17:23:15.098Z,95.50
2023-02-17T17:26:31.636Z,95.60
2023-02-17T17:29:33.191Z,95.00
2023-02-17T17:32:34.671Z,95.40
2023-02-17T17:35:36.435Z,95.60
2023-02-17T17:38:38.468Z,95.60
2023-02-17T17:41:39.997Z,95.20
2023-02-17T17:44:41.671Z,95.70
2023-02-17T17:47:43.245Z,95.70
2023-02-17T17:50:45.134Z,95.70
2023-02-17T17:53:46.815Z,95.70
2023-02-17T17:56:48.341Z,95.60
2023-02-17T17:59:49.848Z,96.10
2023-02-17T18:02:51.334Z,95.80
2023-02-17T18:05:52.836Z,95.70
2023-02-17T18:08:56.196Z,95.70
2023-02-17T18:11:58.744Z,95.70
2023-02-17T18:15:02.655Z,96.10
2023-02-17T18:18:04.263Z,95.70
2023-02-17T18:21:05.938Z,96.10
2023-02-17T18:24:07.722Z,95.90
2023-02-17T18:27:09.170Z,95.80
2023-02-17T18:30:12.022Z,96.00
2023-02-17T18:33:14.424Z,95.90
2023-02-17T18:36:24.895Z,95.90
2023-02-17T18:39:26.428Z,95.40
2023-02-17T18:42:27.946Z,95.90
2023-02-17T18:45:29.941Z,96.00
2023-02-17T18:48:31.836Z,96.00
2023-02-17T18:51:33.404Z,95.80
2023-02-17T18:54:35.014Z,95.90
2023-02-17T18:57:36.968Z,95.70
2023-02-17T19:00:38.462Z,96.10
2023-02-17T19:03:39.929Z,95.90
2023-02-17T19:06:41.430Z,95.90
2023-02-17T19:09:42.884Z,96.10
2023-02-17T19:12:44.388Z,95.90
2023-02-17T19:15:45.950Z,95.80
2023-02-17T19:18:47.622Z,95.90
2023-02-17T19:21:49.125Z,96.10
2023-02-17T19:24:52.214Z,95.70
2023-02-17T19:27:53.703Z,95.70
2023-02-17T19:30:56.023Z,96.00
2023-02-17T19:33:57.538Z,95.90
2023-02-17T19:36:59.002Z,96.00
2023-02-17T19:40:00.748Z,95.90
2023-02-17T19:43:02.325Z,95.80
2023-02-17T19:46:04.185Z,95.80
2023-02-17T19:49:05.908Z,95.90
2023-02-17T19:52:07.638Z,95.90
2023-02-17T19:55:09.965Z,96.00
2023-02-17T19:58:11.465Z,96.00
2023-02-17T20:01:14.376Z,96.40
2023-02-17T20:04:16.369Z,96.20
2023-02-17T20:07:17.919Z,95.60
2023-02-17T20:10:19.591Z,96.00
2023-02-17T20:13:21.066Z,96.20
2023-02-17T20:16:22.628Z,96.00
2023-02-17T20:19:24.190Z,96.60
2023-02-17T20:22:25.725Z,96.00
2023-02-17T20:25:27.431Z,96.10
2023-02-17T20:28:28.915Z,96.10
2023-02-17T20:31:30.526Z,96.10
2023-02-17T20:34:33.365Z,95.90
2023-02-17T20:37:34.849Z,96.00
2023-02-17T20:40:36.320Z,96.20
2023-02-17T20:43:38.425Z,96.40
2023-02-17T20:46:41.430Z,96.00
2023-02-17T20:49:43.087Z,95.80
2023-02-17T20:52:45.241Z,95.70
2023-02-17T20:55:47.405Z,96.10
2023-02-17T20:58:49.146Z,95.70
2023-02-17T21:01:50.719Z,95.90
2023-02-17T21:04:52.509Z,95.60
2023-02-17T21:07:55.365Z,95.90
2023-02-17T21:10:56.889Z,95.70
2023-02-17T21:13:58.398Z,95.80
2023-02-17T21:16:59.925Z,95.90
2023-02-17T21:20:01.460Z,95.70
2023-02-17T21:23:03.254Z,95.90
2023-02-17T21:26:09.462Z,95.90
2023-02-17T21:29:11.158Z,95.20
2023-02-17T21:32:12.720Z,96.40
2023-02-17T21:35:18.539Z,96.00
2023-02-17T21:38:30.410Z,96.80
2023-02-17T21:41:39.483Z,95.50
2023-02-17T21:45:13.754Z,96.30
2023-02-17T21:48:22.356Z,95.80
2023-02-17T21:51:24.591Z,97.10
2023-02-17T21:54:28.610Z,96.90
2023-02-17T21:57:39.391Z,97.30
2023-02-17T22:00:41.124Z,96.80
2023-02-17T22:03:52.058Z,98.00
2023-02-17T22:06:56.422Z,97.50
2023-02-17T22:10:02.121Z,97.00
2023-02-17T22:13:06.039Z,97.10
2023-02-17T22:16:09.481Z,98.20
2023-02-17T22:19:13.688Z,97.10
2023-02-17T22:22:15.156Z,97.00
2023-02-17T22:25:16.715Z,96.50
2023-02-17T22:28:18.191Z,96.30
2023-02-17T22:31:21.209Z,96.40
2023-02-17T22:34:23.146Z,96.40
2023-02-17T22:37:24.834Z,96.50
2023-02-17T22:40:26.498Z,96.30
2023-02-17T22:43:28.046Z,96.50
2023-02-17T22:46:29.598Z,96.60
2023-02-17T22:49:31.089Z,96.50
2023-02-17T22:52:33.907Z,96.40
2023-02-17T22:55:35.375Z,96.30
2023-02-17T22:58:36.858Z,96.70
2023-02-17T23:01:38.670Z,96.40
2023-02-17T23:04:40.229Z,96.10
2023-02-17T23:07:41.924Z,96.90
2023-02-17T23:10:43.651Z,96.30
2023-02-17T23:13:45.272Z,96.40
2023-02-17T23:16:46.836Z,96.30
2023-02-17T23:19:48.713Z,96.40
2023-02-17T23:22:50.622Z,96.20
2023-02-17T23:25:53.759Z,96.30
2023-02-17T23:28:56.068Z,96.40
2023-02-17T23:31:58.009Z,96.50
2023-02-17T23:34:59.821Z,96.50
2023-02-17T23:38:01.280Z,97.00
2023-02-17T23:41:02.801Z,96.60
2023-02-17T23:44:04.805Z,96.50
2023-02-17T23:47:06.313Z,96.40
2023-02-17T23:50:08.050Z,96.50
2023-02-17T23:53:09.617Z,96.30
2023-02-17T23:56:13.251Z,96.60
2023-02-17T23:59:14.825Z,96.40
